SBKPSBBU

Guest
Details From SBKP - Sao Paulo Viracopos
To SBBU - BAURU
Flight Number -
Tags generated
Created
Modified
Stats Distance 114 nm / 211 km
Max Altitude 5,800 ft / 1,768 m
Waypoints 3
Social Downloads 0
Likes 0
Share VATSIM

Download

Looking for another format? Having issues loading an existing format? Contact us
Advertisement - Login to hide

Notes

Basic altitude profile: - Ascent Rate: 2500ft/min - Ascent Speed: 250kts - Cruise Altitude: 35000ft - Cruise Speed: 420kts - Descent Rate: 1500ft/min - Descent Speed: 250kts

Route

SBKP PORTE SBBU

ID Type Via Altitude Latitude Longitude Leg Dist Tot Dist Heading (true) Name
O SBKP APT - 0 ft / 0 m -23.00738˚ -47.13452˚ - 0 nm - Sao Paulo Viracopos
PORTE FIX - 5,800 ft / 1,768 m -22.44917˚ -48.57917˚ 86 nm 86 nm 292° / 293° -
O SBBU APT - 0 ft / 0 m -22.34504˚ -49.05380˚ 27 nm 113 nm 283° / 283° BAURU

Altitude Profile

Advertisement - Login to hide

SBKP

Details ICAO SBKP (VCP)
Name Sao Paulo Viracopos
Region Brazil
Timezone America/Sao_Paulo (UTC-2.0)
Stats Elevation 2,170 ft / 661 m (AMSL)
Location -23.007383° -47.134522°
Runways 1
Magnetic Variation 21.195° W

METAR

SBKP 170600Z 00000KT CAVOK 22/19 Q1013

Decode

TAF

TAF SBKP 170105Z 1706/1806 12005KT CAVOK TN20/1709Z TX32/1718Z BECMG 1711/1713 03005KT BECMG 1714/1716 31010KT SCT045 PROB30 1719/1721 06010KT 8000 TSRA SCT045 FEW050CB BECMG 1721/1723 11005KT CAVOK RMK PGF

Decode

Departure Runways

ID Width Length Bearing (true) Bearing (mag) Surface Threshold Offset Overrun Length
15 148 ft / 45 m 10,639 ft / 3,243 m 127.91° 149.11° Asphalt 0 ft / 0 m 205 ft / 62 m
33 148 ft / 45 m 10,639 ft / 3,243 m 307.90° 329.10° Asphalt 0 ft / 0 m 205 ft / 62 m

SBBU

Details ICAO SBBU (BAU)
Name BAURU
Region Brazil
Timezone America/Sao_Paulo (UTC-2.0)
Stats Elevation 2,025 ft / 617 m (AMSL)
Location -22.345040° -49.053801°
Runways 1
Magnetic Variation 20.401° W

METAR

SBBU 170600Z 03006KT CAVOK 24/21 Q1012

Decode

TAF

TAF SBBU 170300Z 1706/1718 36008KT CAVOK TN24/1709Z TX29/1717Z PROB30 1706/1710 03008KT 02004KT BECMG 1715/1718 9999 VCSH FEW030 FEW035TCU RMK PDN

Decode

Destination Runways

ID Width Length Bearing (true) Bearing (mag) Surface Threshold Offset Overrun Length
14 115 ft / 35 m 4,925 ft / 1,501 m 122.73° 143.13° Asphalt 657 ft / 200 m 0 ft / 0 m
32 115 ft / 35 m 4,925 ft / 1,501 m 302.73° 323.13° Asphalt 0 ft / 0 m 0 ft / 0 m

Popular Alternatives